sensor_id;sensor_type;location;lat;lon;timestamp;P1;durP1;ratioP1;P2;durP2;ratioP2
5195;SDS011;2617;51.006;12.436;2023-04-15T00:01:39;7.17;;;6.03;;
5195;SDS011;2617;51.006;12.436;2023-04-15T00:06:41;6.47;;;5.72;;
5195;SDS011;2617;51.006;12.436;2023-04-15T00:11:43;6.45;;;4.62;;
5195;SDS011;2617;51.006;12.436;2023-04-15T00:16:45;5.93;;;5.25;;
5195;SDS011;2617;51.006;12.436;2023-04-15T00:21:46;6.17;;;4.87;;
5195;SDS011;2617;51.006;12.436;2023-04-15T00:26:49;7.00;;;5.30;;
5195;SDS011;2617;51.006;12.436;2023-04-15T00:31:50;7.00;;;6.10;;
5195;SDS011;2617;51.006;12.436;2023-04-15T00:36:52;7.10;;;5.50;;
5195;SDS011;2617;51.006;12.436;2023-04-15T00:41:54;5.83;;;4.80;;
5195;SDS011;2617;51.006;12.436;2023-04-15T00:46:56;6.23;;;5.47;;
5195;SDS011;2617;51.006;12.436;2023-04-15T00:51:57;7.63;;;6.77;;
5195;SDS011;2617;51.006;12.436;2023-04-15T00:57:00;6.70;;;6.10;;
5195;SDS011;2617;51.006;12.436;2023-04-15T01:02:02;5.60;;;5.10;;
5195;SDS011;2617;51.006;12.436;2023-04-15T01:07:04;4.80;;;4.40;;
5195;SDS011;2617;51.006;12.436;2023-04-15T01:12:06;6.53;;;5.67;;
5195;SDS011;2617;51.006;12.436;2023-04-15T01:17:07;6.65;;;4.95;;
5195;SDS011;2617;51.006;12.436;2023-04-15T01:22:10;7.17;;;5.27;;
5195;SDS011;2617;51.006;12.436;2023-04-15T01:27:12;5.55;;;4.60;;
5195;SDS011;2617;51.006;12.436;2023-04-15T01:32:14;5.57;;;4.37;;
5195;SDS011;2617;51.006;12.436;2023-04-15T01:37:16;5.63;;;4.27;;
5195;SDS011;2617;51.006;12.436;2023-04-15T01:42:19;6.73;;;5.43;;
5195;SDS011;2617;51.006;12.436;2023-04-15T01:47:20;5.50;;;4.23;;
5195;SDS011;2617;51.006;12.436;2023-04-15T01:52:22;7.43;;;5.37;;
5195;SDS011;2617;51.006;12.436;2023-04-15T01:57:24;6.50;;;5.40;;
5195;SDS011;2617;51.006;12.436;2023-04-15T02:02:27;6.27;;;5.20;;
5195;SDS011;2617;51.006;12.436;2023-04-15T02:07:28;13.03;;;5.27;;
5195;SDS011;2617;51.006;12.436;2023-04-15T02:12:31;8.48;;;6.32;;
5195;SDS011;2617;51.006;12.436;2023-04-15T02:17:33;7.47;;;6.23;;
5195;SDS011;2617;51.006;12.436;2023-04-15T02:22:35;11.73;;;7.53;;
5195;SDS011;2617;51.006;12.436;2023-04-15T02:27:36;10.77;;;7.67;;
5195;SDS011;2617;51.006;12.436;2023-04-15T02:32:39;12.43;;;8.37;;
5195;SDS011;2617;51.006;12.436;2023-04-15T02:37:40;18.67;;;11.93;;
5195;SDS011;2617;51.006;12.436;2023-04-15T02:42:43;21.60;;;13.40;;
5195;SDS011;2617;51.006;12.436;2023-04-15T02:47:45;18.90;;;13.30;;
5195;SDS011;2617;51.006;12.436;2023-04-15T02:52:47;21.70;;;13.27;;
5195;SDS011;2617;51.006;12.436;2023-04-15T02:57:49;17.62;;;12.45;;
5195;SDS011;2617;51.006;12.436;2023-04-15T03:02:51;16.27;;;10.93;;
5195;SDS011;2617;51.006;12.436;2023-04-15T03:07:53;15.10;;;10.37;;
5195;SDS011;2617;51.006;12.436;2023-04-15T03:12:54;15.37;;;10.83;;
5195;SDS011;2617;51.006;12.436;2023-04-15T03:17:56;17.80;;;10.23;;
5195;SDS011;2617;51.006;12.436;2023-04-15T03:22:58;13.23;;;9.87;;
5195;SDS011;2617;51.006;12.436;2023-04-15T03:28:00;19.03;;;13.03;;
5195;SDS011;2617;51.006;12.436;2023-04-15T03:33:02;18.70;;;11.32;;
5195;SDS011;2617;51.006;12.436;2023-04-15T03:38:04;21.90;;;11.60;;
5195;SDS011;2617;51.006;12.436;2023-04-15T03:43:06;15.90;;;10.80;;
5195;SDS011;2617;51.006;12.436;2023-04-15T03:48:07;18.83;;;11.80;;
5195;SDS011;2617;51.006;12.436;2023-04-15T03:53:09;15.45;;;11.57;;
5195;SDS011;2617;51.006;12.436;2023-04-15T03:58:12;16.77;;;11.47;;
5195;SDS011;2617;51.006;12.436;2023-04-15T04:03:14;16.20;;;11.73;;
5195;SDS011;2617;51.006;12.436;2023-04-15T04:08:16;16.43;;;12.07;;
5195;SDS011;2617;51.006;12.436;2023-04-15T04:13:18;19.07;;;11.60;;
5195;SDS011;2617;51.006;12.436;2023-04-15T04:18:19;17.43;;;13.13;;
5195;SDS011;2617;51.006;12.436;2023-04-15T04:23:21;17.73;;;12.70;;
5195;SDS011;2617;51.006;12.436;2023-04-15T04:28:23;18.33;;;12.10;;
5195;SDS011;2617;51.006;12.436;2023-04-15T04:33:25;17.17;;;14.20;;
5195;SDS011;2617;51.006;12.436;2023-04-15T04:38:26;12.33;;;8.57;;
5195;SDS011;2617;51.006;12.436;2023-04-15T04:43:28;9.33;;;8.07;;
5195;SDS011;2617;51.006;12.436;2023-04-15T04:48:30;7.63;;;6.10;;
5195;SDS011;2617;51.006;12.436;2023-04-15T04:53:32;8.80;;;8.00;;
5195;SDS011;2617;51.006;12.436;2023-04-15T04:58:33;6.50;;;5.70;;
5195;SDS011;2617;51.006;12.436;2023-04-15T05:03:35;5.43;;;4.93;;
5195;SDS011;2617;51.006;12.436;2023-04-15T05:08:38;7.87;;;5.70;;
5195;SDS011;2617;51.006;12.436;2023-04-15T05:13:39;7.50;;;6.37;;
5195;SDS011;2617;51.006;12.436;2023-04-15T05:18:41;6.23;;;4.93;;
5195;SDS011;2617;51.006;12.436;2023-04-15T05:23:44;5.77;;;5.07;;
5195;SDS011;2617;51.006;12.436;2023-04-15T05:28:46;12.37;;;9.05;;
5195;SDS011;2617;51.006;12.436;2023-04-15T05:33:49;6.60;;;5.23;;
5195;SDS011;2617;51.006;12.436;2023-04-15T05:38:51;5.80;;;4.90;;
5195;SDS011;2617;51.006;12.436;2023-04-15T05:43:54;6.60;;;5.70;;
5195;SDS011;2617;51.006;12.436;2023-04-15T05:48:55;10.00;;;9.00;;
5195;SDS011;2617;51.006;12.436;2023-04-15T05:53:57;7.07;;;5.43;;
5195;SDS011;2617;51.006;12.436;2023-04-15T05:58:59;13.20;;;11.57;;
5195;SDS011;2617;51.006;12.436;2023-04-15T06:04:01;7.40;;;5.37;;
5195;SDS011;2617;51.006;12.436;2023-04-15T06:09:03;5.80;;;4.80;;
5195;SDS011;2617;51.006;12.436;2023-04-15T06:14:04;4.45;;;3.90;;
5195;SDS011;2617;51.006;12.436;2023-04-15T06:19:06;6.20;;;4.30;;
5195;SDS011;2617;51.006;12.436;2023-04-15T06:24:08;4.43;;;3.97;;
5195;SDS011;2617;51.006;12.436;2023-04-15T06:29:10;6.17;;;5.00;;
5195;SDS011;2617;51.006;12.436;2023-04-15T06:34:11;4.43;;;3.83;;
5195;SDS011;2617;51.006;12.436;2023-04-15T06:39:14;6.00;;;3.37;;
5195;SDS011;2617;51.006;12.436;2023-04-15T06:44:16;4.87;;;4.30;;
5195;SDS011;2617;51.006;12.436;2023-04-15T06:49:17;5.03;;;3.90;;
5195;SDS011;2617;51.006;12.436;2023-04-15T06:54:20;5.10;;;4.60;;
5195;SDS011;2617;51.006;12.436;2023-04-15T06:59:22;4.70;;;3.60;;
5195;SDS011;2617;51.006;12.436;2023-04-15T07:04:24;3.90;;;3.60;;
5195;SDS011;2617;51.006;12.436;2023-04-15T07:09:27;4.85;;;3.87;;
5195;SDS011;2617;51.006;12.436;2023-04-15T07:14:29;4.87;;;3.47;;
5195;SDS011;2617;51.006;12.436;2023-04-15T07:19:31;4.30;;;3.57;;
5195;SDS011;2617;51.006;12.436;2023-04-15T07:24:32;6.70;;;5.03;;
5195;SDS011;2617;51.006;12.436;2023-04-15T07:29:35;5.63;;;5.13;;
5195;SDS011;2617;51.006;12.436;2023-04-15T07:34:36;5.50;;;4.57;;
5195;SDS011;2617;51.006;12.436;2023-04-15T07:39:38;5.87;;;4.13;;
5195;SDS011;2617;51.006;12.436;2023-04-15T07:44:40;4.87;;;3.80;;
5195;SDS011;2617;51.006;12.436;2023-04-15T07:49:41;4.17;;;3.67;;
5195;SDS011;2617;51.006;12.436;2023-04-15T07:54:44;5.93;;;4.43;;
5195;SDS011;2617;51.006;12.436;2023-04-15T07:59:46;5.07;;;4.17;;
5195;SDS011;2617;51.006;12.436;2023-04-15T08:04:48;4.45;;;4.00;;
5195;SDS011;2617;51.006;12.436;2023-04-15T08:09:50;4.10;;;3.57;;
5195;SDS011;2617;51.006;12.436;2023-04-15T08:14:52;4.30;;;3.67;;
5195;SDS011;2617;51.006;12.436;2023-04-15T08:19:54;10.70;;;7.43;;
5195;SDS011;2617;51.006;12.436;2023-04-15T08:24:56;8.03;;;4.40;;
5195;SDS011;2617;51.006;12.436;2023-04-15T08:29:58;3.40;;;3.03;;
5195;SDS011;2617;51.006;12.436;2023-04-15T08:34:59;4.80;;;3.00;;
5195;SDS011;2617;51.006;12.436;2023-04-15T08:40:02;3.07;;;2.83;;
5195;SDS011;2617;51.006;12.436;2023-04-15T08:45:04;3.03;;;2.83;;
5195;SDS011;2617;51.006;12.436;2023-04-15T08:50:07;2.83;;;2.63;;
5195;SDS011;2617;51.006;12.436;2023-04-15T08:55:09;3.00;;;2.23;;
5195;SDS011;2617;51.006;12.436;2023-04-15T09:00:11;2.80;;;2.60;;
5195;SDS011;2617;51.006;12.436;2023-04-15T09:05:13;2.50;;;2.40;;
5195;SDS011;2617;51.006;12.436;2023-04-15T09:10:15;2.73;;;2.53;;
5195;SDS011;2617;51.006;12.436;2023-04-15T09:15:18;2.60;;;2.40;;
5195;SDS011;2617;51.006;12.436;2023-04-15T09:20:20;2.20;;;2.10;;
5195;SDS011;2617;51.006;12.436;2023-04-15T09:25:25;2.70;;;1.80;;
5195;SDS011;2617;51.006;12.436;2023-04-15T09:30:27;1.90;;;1.80;;
5195;SDS011;2617;51.006;12.436;2023-04-15T09:35:30;2.70;;;2.50;;
5195;SDS011;2617;51.006;12.436;2023-04-15T09:40:33;1.90;;;1.80;;
5195;SDS011;2617;51.006;12.436;2023-04-15T09:45:35;2.13;;;2.03;;
5195;SDS011;2617;51.006;12.436;2023-04-15T09:50:39;2.12;;;2.03;;
5195;SDS011;2617;51.006;12.436;2023-04-15T09:55:42;2.93;;;2.73;;
5195;SDS011;2617;51.006;12.436;2023-04-15T10:00:42;2.47;;;2.23;;
5195;SDS011;2617;51.006;12.436;2023-04-15T10:05:44;1.65;;;1.52;;
5195;SDS011;2617;51.006;12.436;2023-04-15T10:10:46;1.80;;;1.60;;
5195;SDS011;2617;51.006;12.436;2023-04-15T10:15:49;1.50;;;1.43;;
5195;SDS011;2617;51.006;12.436;2023-04-15T10:20:50;1.63;;;1.63;;
5195;SDS011;2617;51.006;12.436;2023-04-15T10:25:52;2.23;;;1.50;;
5195;SDS011;2617;51.006;12.436;2023-04-15T10:30:54;1.67;;;1.57;;
5195;SDS011;2617;51.006;12.436;2023-04-15T10:35:55;3.92;;;1.90;;
5195;SDS011;2617;51.006;12.436;2023-04-15T10:46:12;2.37;;;2.20;;
5195;SDS011;2617;51.006;12.436;2023-04-15T10:51:14;1.83;;;1.73;;
5195;SDS011;2617;51.006;12.436;2023-04-15T10:56:16;1.90;;;1.80;;
5195;SDS011;2617;51.006;12.436;2023-04-15T11:01:18;1.90;;;1.80;;
5195;SDS011;2617;51.006;12.436;2023-04-15T11:06:20;1.60;;;1.50;;
5195;SDS011;2617;51.006;12.436;2023-04-15T11:11:23;2.40;;;2.30;;
5195;SDS011;2617;51.006;12.436;2023-04-15T11:16:42;1.87;;;1.77;;
5195;SDS011;2617;51.006;12.436;2023-04-15T11:21:44;1.67;;;1.57;;
5195;SDS011;2617;51.006;12.436;2023-04-15T11:26:46;2.27;;;2.07;;
5195;SDS011;2617;51.006;12.436;2023-04-15T11:31:48;2.10;;;2.00;;
5195;SDS011;2617;51.006;12.436;2023-04-15T11:36:51;3.28;;;2.97;;
5195;SDS011;2617;51.006;12.436;2023-04-15T11:41:52;2.33;;;2.20;;
5195;SDS011;2617;51.006;12.436;2023-04-15T11:46:54;2.40;;;2.20;;
5195;SDS011;2617;51.006;12.436;2023-04-15T11:51:56;2.57;;;2.37;;
5195;SDS011;2617;51.006;12.436;2023-04-15T11:56:58;2.27;;;2.17;;
5195;SDS011;2617;51.006;12.436;2023-04-15T12:02:10;2.57;;;2.37;;
5195;SDS011;2617;51.006;12.436;2023-04-15T12:07:03;2.03;;;1.93;;
5195;SDS011;2617;51.006;12.436;2023-04-15T12:12:05;2.25;;;2.15;;
5195;SDS011;2617;51.006;12.436;2023-04-15T12:17:07;2.27;;;2.07;;
5195;SDS011;2617;51.006;12.436;2023-04-15T12:22:10;2.05;;;1.95;;
5195;SDS011;2617;51.006;12.436;2023-04-15T12:27:11;2.05;;;1.95;;
5195;SDS011;2617;51.006;12.436;2023-04-15T12:32:13;2.13;;;2.03;;
5195;SDS011;2617;51.006;12.436;2023-04-15T12:37:15;2.03;;;1.93;;
5195;SDS011;2617;51.006;12.436;2023-04-15T12:42:17;3.27;;;2.47;;
5195;SDS011;2617;51.006;12.436;2023-04-15T12:47:18;2.23;;;2.13;;
5195;SDS011;2617;51.006;12.436;2023-04-15T12:52:20;2.77;;;2.53;;
5195;SDS011;2617;51.006;12.436;2023-04-15T12:57:22;4.00;;;3.13;;
5195;SDS011;2617;51.006;12.436;2023-04-15T13:02:24;3.50;;;3.20;;
5195;SDS011;2617;51.006;12.436;2023-04-15T13:07:27;4.20;;;3.83;;
5195;SDS011;2617;51.006;12.436;2023-04-15T13:12:29;4.13;;;3.73;;
5195;SDS011;2617;51.006;12.436;2023-04-15T13:17:30;4.43;;;4.03;;
5195;SDS011;2617;51.006;12.436;2023-04-15T13:22:32;5.07;;;4.63;;
5195;SDS011;2617;51.006;12.436;2023-04-15T13:27:35;5.23;;;4.73;;
5195;SDS011;2617;51.006;12.436;2023-04-15T13:32:36;5.13;;;4.47;;
5195;SDS011;2617;51.006;12.436;2023-04-15T13:37:38;4.93;;;4.53;;
5195;SDS011;2617;51.006;12.436;2023-04-15T13:42:40;4.93;;;4.47;;
5195;SDS011;2617;51.006;12.436;2023-04-15T13:47:42;5.70;;;5.20;;
5195;SDS011;2617;51.006;12.436;2023-04-15T13:52:43;5.83;;;4.90;;
5195;SDS011;2617;51.006;12.436;2023-04-15T13:57:45;7.57;;;5.60;;
5195;SDS011;2617;51.006;12.436;2023-04-15T14:02:47;5.40;;;4.80;;
5195;SDS011;2617;51.006;12.436;2023-04-15T14:07:49;7.03;;;5.43;;
5195;SDS011;2617;51.006;12.436;2023-04-15T14:23:24;4.33;;;3.93;;
5195;SDS011;2617;51.006;12.436;2023-04-15T14:28:25;3.63;;;3.40;;
5195;SDS011;2617;51.006;12.436;2023-04-15T14:33:27;7.40;;;5.97;;
5195;SDS011;2617;51.006;12.436;2023-04-15T14:38:29;2.87;;;2.67;;
5195;SDS011;2617;51.006;12.436;2023-04-15T14:43:31;4.30;;;3.90;;
5195;SDS011;2617;51.006;12.436;2023-04-15T14:48:34;3.23;;;3.00;;
5195;SDS011;2617;51.006;12.436;2023-04-15T14:53:36;2.67;;;2.43;;
5195;SDS011;2617;51.006;12.436;2023-04-15T14:58:38;2.90;;;2.60;;
5195;SDS011;2617;51.006;12.436;2023-04-15T15:03:40;2.77;;;2.57;;
5195;SDS011;2617;51.006;12.436;2023-04-15T15:08:42;3.30;;;2.90;;
5195;SDS011;2617;51.006;12.436;2023-04-15T15:13:43;3.73;;;2.90;;
5195;SDS011;2617;51.006;12.436;2023-04-15T15:18:45;4.95;;;3.85;;
5195;SDS011;2617;51.006;12.436;2023-04-15T15:23:47;3.78;;;3.47;;
5195;SDS011;2617;51.006;12.436;2023-04-15T15:28:49;11.63;;;8.10;;
5195;SDS011;2617;51.006;12.436;2023-04-15T15:33:50;4.43;;;3.97;;
5195;SDS011;2617;51.006;12.436;2023-04-15T15:38:52;5.70;;;4.03;;
5195;SDS011;2617;51.006;12.436;2023-04-15T15:43:54;5.23;;;3.73;;
5195;SDS011;2617;51.006;12.436;2023-04-15T15:48:56;4.80;;;3.70;;
5195;SDS011;2617;51.006;12.436;2023-04-15T15:53:58;4.80;;;3.37;;
5195;SDS011;2617;51.006;12.436;2023-04-15T15:59:00;5.67;;;4.13;;
5195;SDS011;2617;51.006;12.436;2023-04-15T16:09:12;6.50;;;4.57;;
5195;SDS011;2617;51.006;12.436;2023-04-15T16:14:14;5.80;;;4.60;;
5195;SDS011;2617;51.006;12.436;2023-04-15T16:19:18;6.32;;;4.82;;
5195;SDS011;2617;51.006;12.436;2023-04-15T16:24:20;6.00;;;4.27;;
5195;SDS011;2617;51.006;12.436;2023-04-15T16:29:23;6.50;;;4.80;;
5195;SDS011;2617;51.006;12.436;2023-04-15T16:34:25;6.90;;;5.47;;
5195;SDS011;2617;51.006;12.436;2023-04-15T16:39:28;5.10;;;4.60;;
5195;SDS011;2617;51.006;12.436;2023-04-15T16:44:31;5.17;;;4.60;;
5195;SDS011;2617;51.006;12.436;2023-04-15T16:49:34;7.20;;;4.97;;
5195;SDS011;2617;51.006;12.436;2023-04-15T16:54:36;4.90;;;4.40;;
5195;SDS011;2617;51.006;12.436;2023-04-15T16:59:39;5.03;;;4.30;;
5195;SDS011;2617;51.006;12.436;2023-04-15T17:04:43;17.48;;;14.82;;
5195;SDS011;2617;51.006;12.436;2023-04-15T17:09:45;12.00;;;9.03;;
5195;SDS011;2617;51.006;12.436;2023-04-15T17:14:48;6.30;;;5.23;;
5195;SDS011;2617;51.006;12.436;2023-04-15T17:19:51;6.30;;;5.23;;
5195;SDS011;2617;51.006;12.436;2023-04-15T17:24:53;5.67;;;4.50;;
5195;SDS011;2617;51.006;12.436;2023-04-15T17:29:56;6.20;;;4.80;;
5195;SDS011;2617;51.006;12.436;2023-04-15T17:34:59;7.83;;;5.60;;
5195;SDS011;2617;51.006;12.436;2023-04-15T17:40:02;7.27;;;5.27;;
5195;SDS011;2617;51.006;12.436;2023-04-15T17:45:04;20.00;;;11.83;;
5195;SDS011;2617;51.006;12.436;2023-04-15T17:50:08;12.37;;;9.87;;
5195;SDS011;2617;51.006;12.436;2023-04-15T17:55:10;12.83;;;10.20;;
5195;SDS011;2617;51.006;12.436;2023-04-15T18:00:14;12.57;;;9.55;;
5195;SDS011;2617;51.006;12.436;2023-04-15T18:05:16;12.33;;;9.37;;
5195;SDS011;2617;51.006;12.436;2023-04-15T18:10:19;11.54;;;8.76;;
5195;SDS011;2617;51.006;12.436;2023-04-15T18:15:21;15.90;;;9.20;;
5195;SDS011;2617;51.006;12.436;2023-04-15T18:20:24;15.47;;;9.13;;
5195;SDS011;2617;51.006;12.436;2023-04-15T18:25:26;7.80;;;5.97;;
5195;SDS011;2617;51.006;12.436;2023-04-15T18:30:29;6.87;;;6.17;;
5195;SDS011;2617;51.006;12.436;2023-04-15T18:35:33;9.07;;;6.60;;
5195;SDS011;2617;51.006;12.436;2023-04-15T18:40:34;7.60;;;6.20;;
5195;SDS011;2617;51.006;12.436;2023-04-15T18:45:37;9.77;;;6.97;;
5195;SDS011;2617;51.006;12.436;2023-04-15T18:50:39;9.00;;;7.27;;
5195;SDS011;2617;51.006;12.436;2023-04-15T18:55:42;8.90;;;6.70;;
5195;SDS011;2617;51.006;12.436;2023-04-15T19:00:45;11.70;;;9.15;;
5195;SDS011;2617;51.006;12.436;2023-04-15T19:05:47;8.93;;;7.07;;
5195;SDS011;2617;51.006;12.436;2023-04-15T19:10:50;9.40;;;7.37;;
5195;SDS011;2617;51.006;12.436;2023-04-15T19:15:52;13.70;;;7.95;;
5195;SDS011;2617;51.006;12.436;2023-04-15T19:20:55;14.60;;;9.45;;
5195;SDS011;2617;51.006;12.436;2023-04-15T19:25:57;14.23;;;9.40;;
5195;SDS011;2617;51.006;12.436;2023-04-15T19:31:00;11.77;;;8.80;;
5195;SDS011;2617;51.006;12.436;2023-04-15T19:36:04;15.00;;;9.77;;
5195;SDS011;2617;51.006;12.436;2023-04-15T19:41:06;11.80;;;8.57;;
5195;SDS011;2617;51.006;12.436;2023-04-15T19:46:09;15.50;;;9.80;;
5195;SDS011;2617;51.006;12.436;2023-04-15T19:51:11;14.00;;;10.43;;
5195;SDS011;2617;51.006;12.436;2023-04-15T19:56:15;15.76;;;10.40;;
5195;SDS011;2617;51.006;12.436;2023-04-15T20:01:18;14.20;;;9.23;;
5195;SDS011;2617;51.006;12.436;2023-04-15T20:06:20;13.40;;;9.70;;
5195;SDS011;2617;51.006;12.436;2023-04-15T20:11:23;13.60;;;9.75;;
5195;SDS011;2617;51.006;12.436;2023-04-15T20:16:25;15.63;;;11.07;;
5195;SDS011;2617;51.006;12.436;2023-04-15T20:21:28;20.10;;;11.70;;
5195;SDS011;2617;51.006;12.436;2023-04-15T20:26:30;13.77;;;9.73;;
5195;SDS011;2617;51.006;12.436;2023-04-15T20:31:32;12.13;;;8.98;;
5195;SDS011;2617;51.006;12.436;2023-04-15T20:36:35;16.03;;;9.13;;
5195;SDS011;2617;51.006;12.436;2023-04-15T20:41:37;11.00;;;8.27;;
5195;SDS011;2617;51.006;12.436;2023-04-15T20:46:40;10.82;;;8.38;;
5195;SDS011;2617;51.006;12.436;2023-04-15T20:51:43;11.50;;;8.33;;
5195;SDS011;2617;51.006;12.436;2023-04-15T20:56:46;9.43;;;7.30;;
5195;SDS011;2617;51.006;12.436;2023-04-15T21:01:48;9.03;;;7.60;;
5195;SDS011;2617;51.006;12.436;2023-04-15T21:06:51;8.52;;;7.24;;
5195;SDS011;2617;51.006;12.436;2023-04-15T21:11:55;18.37;;;7.60;;
5195;SDS011;2617;51.006;12.436;2023-04-15T21:16:57;10.33;;;7.50;;
5195;SDS011;2617;51.006;12.436;2023-04-15T21:22:00;18.17;;;10.57;;
5195;SDS011;2617;51.006;12.436;2023-04-15T21:27:02;18.55;;;9.43;;
5195;SDS011;2617;51.006;12.436;2023-04-15T21:32:05;14.37;;;11.00;;
5195;SDS011;2617;51.006;12.436;2023-04-15T21:37:07;14.33;;;10.87;;
5195;SDS011;2617;51.006;12.436;2023-04-15T21:42:09;20.10;;;11.70;;
5195;SDS011;2617;51.006;12.436;2023-04-15T21:47:13;15.73;;;10.57;;
5195;SDS011;2617;51.006;12.436;2023-04-15T21:52:15;14.23;;;11.37;;
5195;SDS011;2617;51.006;12.436;2023-04-15T21:57:18;18.70;;;11.50;;
5195;SDS011;2617;51.006;12.436;2023-04-15T22:02:20;17.17;;;11.07;;
5195;SDS011;2617;51.006;12.436;2023-04-15T22:07:23;52.47;;;24.80;;
5195;SDS011;2617;51.006;12.436;2023-04-15T22:12:25;59.63;;;27.17;;
5195;SDS011;2617;51.006;12.436;2023-04-15T22:17:28;26.23;;;15.50;;
5195;SDS011;2617;51.006;12.436;2023-04-15T22:22:31;18.73;;;12.70;;
5195;SDS011;2617;51.006;12.436;2023-04-15T22:27:33;19.57;;;12.10;;
5195;SDS011;2617;51.006;12.436;2023-04-15T22:32:35;19.93;;;12.80;;
5195;SDS011;2617;51.006;12.436;2023-04-15T22:37:38;23.27;;;13.37;;
5195;SDS011;2617;51.006;12.436;2023-04-15T22:42:40;19.90;;;12.40;;
5195;SDS011;2617;51.006;12.436;2023-04-15T22:47:43;26.80;;;14.50;;
5195;SDS011;2617;51.006;12.436;2023-04-15T22:52:45;18.93;;;13.33;;
5195;SDS011;2617;51.006;12.436;2023-04-15T22:57:48;15.97;;;10.90;;
5195;SDS011;2617;51.006;12.436;2023-04-15T23:02:51;19.52;;;11.73;;
5195;SDS011;2617;51.006;12.436;2023-04-15T23:07:54;18.50;;;12.37;;
5195;SDS011;2617;51.006;12.436;2023-04-15T23:12:56;20.60;;;13.02;;
5195;SDS011;2617;51.006;12.436;2023-04-15T23:17:59;17.80;;;12.23;;
5195;SDS011;2617;51.006;12.436;2023-04-15T23:23:01;17.97;;;11.97;;
5195;SDS011;2617;51.006;12.436;2023-04-15T23:28:04;19.77;;;13.80;;
5195;SDS011;2617;51.006;12.436;2023-04-15T23:33:07;18.70;;;12.23;;
5195;SDS011;2617;51.006;12.436;2023-04-15T23:38:10;21.47;;;13.97;;
5195;SDS011;2617;51.006;12.436;2023-04-15T23:43:13;19.07;;;12.57;;
5195;SDS011;2617;51.006;12.436;2023-04-15T23:48:15;18.60;;;12.77;;
5195;SDS011;2617;51.006;12.436;2023-04-15T23:53:17;20.90;;;13.50;;
5195;SDS011;2617;51.006;12.436;2023-04-15T23:58:20;19.70;;;12.77;;
